Terminal Aerodrome Forecast
Issued by NWS Cleveland, OH

Home | Current Version | Previous Version | Text Only | Print | Product List | Glossary Off
Versions: 1 2 3 4 5 6 7 8 9 10 11 12 13 14 15 16

149
FTUS41 KCLE 051131
TAFYNG
TAF
KYNG 051131Z 0512/0612 27010G18KT P6SM SCT008 OVC012
      TEMPO 0514/0517 BKN008
     FM051800 24010KT P6SM SCT015 OVC025
     FM060100 VRB04KT P6SM SCT025 BKN200
     FM060900 09008KT P6SM SCT100 OVC200=

USA.gov is the U.S. government's official web portal to all federal, state and local government web resources and services.